createdAt,value
2017-04-14T00:00:38.189Z,10.99
2017-04-14T00:01:38.200Z,10.87
2017-04-14T00:02:38.206Z,10.96
2017-04-14T00:03:38.218Z,10.93
2017-04-14T00:04:38.237Z,10.9
2017-04-14T00:05:38.251Z,10.89
2017-04-14T00:06:38.271Z,10.9
2017-04-14T00:07:38.283Z,10.89
2017-04-14T00:08:38.301Z,10.9
2017-04-14T00:09:38.310Z,10.9
2017-04-14T00:10:38.333Z,10.93
2017-04-14T00:11:38.350Z,10.9
2017-04-14T00:12:38.365Z,10.89
2017-04-14T00:13:38.390Z,10.94
2017-04-14T00:14:38.396Z,10.96
2017-04-14T00:15:38.189Z,10.82
2017-04-14T00:16:38.427Z,10.89
2017-04-14T00:17:38.447Z,10.86
2017-04-14T00:18:38.461Z,10.86
2017-04-14T00:19:38.162Z,10.89
2017-04-14T00:20:38.499Z,10.79
2017-04-14T00:21:38.523Z,10.84
2017-04-14T00:22:38.212Z,10.81
2017-04-14T00:23:38.558Z,10.79
2017-04-14T00:24:38.566Z,10.79
2017-04-14T00:25:38.262Z,10.82
2017-04-14T00:26:38.594Z,10.82
2017-04-14T00:27:38.623Z,10.72
2017-04-14T00:28:38.623Z,10.86
2017-04-14T00:29:38.639Z,10.72
2017-04-14T00:30:38.657Z,10.74
2017-04-14T00:31:38.358Z,10.75
2017-04-14T00:32:38.686Z,10.72
2017-04-14T00:33:38.702Z,10.81
2017-04-14T00:34:38.722Z,10.72
2017-04-14T00:35:38.738Z,10.76
2017-04-14T00:36:38.753Z,10.79
2017-04-14T00:37:38.779Z,10.75
2017-04-14T00:38:38.787Z,10.72
2017-04-14T00:39:38.797Z,10.78
2017-04-14T00:40:38.820Z,10.78
2017-04-14T00:41:38.831Z,10.75
2017-04-14T00:42:38.853Z,10.67
2017-04-14T00:43:38.862Z,10.69
2017-04-14T00:44:38.889Z,10.76
2017-04-14T00:45:38.899Z,10.67
2017-04-14T00:46:38.914Z,10.63
2017-04-14T00:47:38.933Z,10.64
2017-04-14T00:48:38.944Z,10.68
2017-04-14T00:49:38.967Z,10.72
2017-04-14T00:50:38.972Z,10.61
2017-04-14T00:51:38.997Z,10.67
2017-04-14T00:52:39.006Z,10.67
2017-04-14T00:53:39.030Z,10.53
2017-04-14T00:54:39.038Z,10.61
2017-04-14T00:55:39.054Z,10.67
2017-04-14T00:56:39.068Z,10.56
2017-04-14T00:57:39.089Z,10.6
2017-04-14T00:58:39.108Z,10.54
2017-04-14T00:59:38.808Z,10.53
2017-04-14T01:00:39.137Z,10.56
2017-04-14T01:01:39.156Z,10.53
2017-04-14T01:02:39.168Z,10.59
2017-04-14T01:03:39.186Z,10.53
2017-04-14T01:04:39.197Z,10.48
2017-04-14T01:05:39.215Z,10.53
2017-04-14T01:06:39.285Z,10.53
2017-04-14T01:07:39.249Z,10.49
2017-04-14T01:08:39.267Z,10.54
2017-04-14T01:09:39.277Z,10.53
2017-04-14T01:10:39.295Z,10.48
2017-04-14T01:11:39.313Z,10.41
2017-04-14T01:12:39.321Z,10.38
2017-04-14T01:13:39.342Z,10.41
2017-04-14T01:14:39.359Z,10.42
2017-04-14T01:15:39.372Z,10.42
2017-04-14T01:16:39.078Z,10.41
2017-04-14T01:17:39.405Z,10.42
2017-04-14T01:18:39.423Z,10.4
2017-04-14T01:19:39.436Z,10.42
2017-04-14T01:20:39.446Z,10.35
2017-04-14T01:21:39.465Z,10.4
2017-04-14T01:22:39.488Z,10.4
2017-04-14T01:23:39.516Z,10.37
2017-04-14T01:24:39.515Z,10.37
2017-04-14T01:25:39.532Z,10.37
2017-04-14T01:26:39.547Z,10.35
2017-04-14T01:27:39.562Z,10.33
2017-04-14T01:28:39.578Z,10.4
2017-04-14T01:29:39.594Z,10.37
2017-04-14T01:30:39.612Z,10.35
2017-04-14T01:31:39.310Z,10.34
2017-04-14T01:32:39.646Z,10.35
2017-04-14T01:33:39.659Z,10.33
2017-04-14T01:34:39.676Z,10.3
2017-04-14T01:35:39.813Z,10.28
2017-04-14T01:36:39.811Z,10.22
2017-04-14T01:37:39.829Z,10.26
2017-04-14T01:38:39.831Z,10.28
2017-04-14T01:39:39.866Z,10.28
2017-04-14T01:40:39.867Z,10.22
2017-04-14T01:41:39.872Z,10.28
2017-04-14T01:42:39.848Z,10.23
2017-04-14T01:43:39.849Z,10.25
2017-04-14T01:44:39.856Z,10.23
2017-04-14T01:45:39.858Z,10.23
2017-04-14T01:46:39.866Z,10.22
2017-04-14T01:47:39.883Z,10.23
2017-04-14T01:48:39.894Z,10.25
2017-04-14T01:49:40.027Z,10.1
2017-04-14T01:50:40.040Z,10.2
2017-04-14T01:51:40.012Z,10.2
2017-04-14T01:52:39.957Z,10.15
2017-04-14T01:53:40.100Z,10.12
2017-04-14T01:54:40.102Z,10.13
2017-04-14T01:55:40.118Z,10.13
2017-04-14T01:56:40.116Z,10.15
2017-04-14T01:57:40.137Z,10.12
2017-04-14T01:58:40.247Z,10.17
2017-04-14T01:59:40.262Z,10.1
2017-04-14T02:00:40.267Z,10.13
2017-04-14T02:01:40.277Z,10.13
2017-04-14T02:02:40.293Z,10.05
2017-04-14T02:03:40.283Z,10.15
2017-04-14T02:04:40.290Z,10.02
2017-04-14T02:05:40.305Z,10.12
2017-04-14T02:06:39.996Z,9.95
2017-04-14T02:07:40.310Z,10.05
2017-04-14T02:08:40.312Z,9.97
2017-04-14T02:09:40.319Z,9.97
2017-04-14T02:10:40.058Z,9.98
2017-04-14T02:11:40.059Z,10.04
2017-04-14T02:12:40.390Z,9.94
2017-04-14T02:13:40.390Z,9.95
2017-04-14T02:14:40.398Z,9.98
2017-04-14T02:15:40.403Z,9.99
2017-04-14T02:16:40.417Z,9.94
2017-04-14T02:17:40.425Z,9.87
2017-04-14T02:18:40.472Z,9.97
2017-04-14T02:19:40.477Z,10.01
2017-04-14T02:20:40.476Z,9.97
2017-04-14T02:21:40.489Z,9.87
2017-04-14T02:22:40.495Z,9.95
2017-04-14T02:23:40.446Z,9.97
2017-04-14T02:24:40.457Z,9.91
2017-04-14T02:25:40.470Z,9.89
2017-04-14T02:26:40.488Z,9.92
2017-04-14T02:27:40.504Z,9.89
2017-04-14T02:28:40.513Z,9.95
2017-04-14T02:29:40.219Z,9.8
2017-04-14T02:30:40.549Z,9.82
2017-04-14T02:31:40.565Z,9.77
2017-04-14T02:32:40.582Z,9.79
2017-04-14T02:33:40.598Z,9.89
2017-04-14T02:34:40.610Z,9.8
2017-04-14T02:35:40.629Z,9.77
2017-04-14T02:36:40.638Z,9.8
2017-04-14T02:37:40.660Z,9.79
2017-04-14T02:38:40.667Z,9.79
2017-04-14T02:39:40.687Z,9.76
2017-04-14T02:40:40.702Z,9.82
2017-04-14T02:41:40.714Z,9.76
2017-04-14T02:42:40.738Z,9.68
2017-04-14T02:43:40.754Z,9.69
2017-04-14T02:44:40.766Z,9.72
2017-04-14T02:45:40.779Z,9.64
2017-04-14T02:46:40.795Z,9.83
2017-04-14T02:47:40.812Z,9.77
2017-04-14T02:48:40.832Z,9.77
2017-04-14T02:49:40.840Z,9.79
2017-04-14T02:50:40.857Z,9.76
2017-04-14T02:51:40.868Z,9.69
2017-04-14T02:52:40.887Z,9.76
2017-04-14T02:53:40.903Z,9.77
2017-04-14T02:54:40.936Z,9.76
2017-04-14T02:55:40.939Z,9.66
2017-04-14T02:56:40.954Z,9.68
2017-04-14T02:57:40.975Z,9.68
2017-04-14T02:58:41.182Z,9.65
2017-04-14T02:59:41.083Z,9.64
2017-04-14T03:00:41.197Z,9.72
2017-04-14T03:01:41.022Z,9.64
2017-04-14T03:02:41.047Z,9.65
2017-04-14T03:03:41.065Z,9.72
2017-04-14T03:04:40.754Z,9.68
2017-04-14T03:05:41.085Z,9.68
2017-04-14T03:06:41.106Z,9.74
2017-04-14T03:07:41.130Z,9.73
2017-04-14T03:08:41.146Z,9.65
2017-04-14T03:09:41.157Z,9.69
2017-04-14T03:10:41.166Z,9.61
2017-04-14T03:11:41.180Z,9.65
2017-04-14T03:12:40.878Z,9.59
2017-04-14T03:13:41.209Z,9.55
2017-04-14T03:14:41.230Z,9.64
2017-04-14T03:15:41.243Z,9.55
2017-04-14T03:16:41.250Z,9.58
2017-04-14T03:17:40.966Z,9.55
2017-04-14T03:18:40.971Z,9.59
2017-04-14T03:19:41.299Z,9.56
2017-04-14T03:20:41.314Z,9.47
2017-04-14T03:21:41.323Z,9.51
2017-04-14T03:22:41.343Z,9.5
2017-04-14T03:23:41.369Z,9.51
2017-04-14T03:24:41.372Z,9.54
2017-04-14T03:25:41.390Z,9.46
2017-04-14T03:26:41.401Z,9.43
2017-04-14T03:27:41.418Z,9.43
2017-04-14T03:28:41.443Z,9.43
2017-04-14T03:29:41.457Z,9.5
2017-04-14T03:30:41.471Z,9.48
2017-04-14T03:31:41.483Z,9.44
2017-04-14T03:32:41.499Z,9.43
2017-04-14T03:33:41.517Z,9.43
2017-04-14T03:34:41.534Z,9.43
2017-04-14T03:35:41.543Z,9.37
2017-04-14T03:36:41.757Z,9.5
2017-04-14T03:37:41.768Z,9.34
2017-04-14T03:38:41.796Z,9.36
2017-04-14T03:39:41.807Z,9.34
2017-04-14T03:40:41.817Z,9.37
2017-04-14T03:41:41.826Z,9.32
2017-04-14T03:42:41.834Z,9.29
2017-04-14T03:43:41.846Z,9.32
2017-04-14T03:44:41.858Z,9.37
2017-04-14T03:45:41.545Z,9.4
2017-04-14T03:46:41.864Z,9.23
2017-04-14T03:47:41.872Z,9.29
2017-04-14T03:48:41.879Z,9.28
2017-04-14T03:49:41.888Z,9.29
2017-04-14T03:50:41.851Z,9.28
2017-04-14T03:51:41.863Z,9.26
2017-04-14T03:52:41.666Z,9.23
2017-04-14T03:53:41.879Z,9.22
2017-04-14T03:54:41.879Z,9.25
2017-04-14T03:55:41.886Z,9.14
2017-04-14T03:56:41.690Z,9.16
2017-04-14T03:57:41.903Z,9.21
2017-04-14T03:58:41.913Z,9.18
2017-04-14T03:59:41.919Z,9.18
2017-04-14T04:00:41.919Z,9.14
2017-04-14T04:01:41.938Z,9.14
2017-04-14T04:02:41.947Z,9.18
2017-04-14T04:03:41.970Z,9.18
2017-04-14T04:04:42.024Z,9.13
2017-04-14T04:05:41.990Z,9.14
2017-04-14T04:06:42.007Z,9.14
2017-04-14T04:07:42.026Z,9.13
2017-04-14T04:08:42.031Z,9.13
2017-04-14T04:09:42.054Z,9.13
2017-04-14T04:10:42.067Z,9.18
2017-04-14T04:11:42.074Z,9.1
2017-04-14T04:12:41.879Z,9.16
2017-04-14T04:13:42.110Z,9.08
2017-04-14T04:14:42.128Z,9.08
2017-04-14T04:15:42.141Z,9.06
2017-04-14T04:16:42.158Z,9.04
2017-04-14T04:17:42.169Z,9.1
2017-04-14T04:18:42.188Z,9
2017-04-14T04:19:42.200Z,8.99
2017-04-14T04:20:42.212Z,8.99
2017-04-14T04:21:42.223Z,8.99
2017-04-14T04:22:42.244Z,9.03
2017-04-14T04:23:42.261Z,9.03
2017-04-14T04:24:42.276Z,9
2017-04-14T04:25:42.291Z,8.97
2017-04-14T04:26:42.298Z,9.03
2017-04-14T04:27:42.318Z,9.02
2017-04-14T04:28:42.029Z,9.02
2017-04-14T04:29:42.343Z,8.99
2017-04-14T04:30:42.363Z,8.99
2017-04-14T04:31:42.397Z,9.04
2017-04-14T04:32:42.390Z,8.99
2017-04-14T04:33:42.409Z,9.03
2017-04-14T04:34:42.104Z,8.92
2017-04-14T04:35:42.119Z,8.94
2017-04-14T04:36:42.451Z,9
2017-04-14T04:37:42.165Z,9.02
2017-04-14T04:38:42.481Z,8.99
2017-04-14T04:39:42.490Z,8.95
2017-04-14T04:40:42.507Z,8.97
2017-04-14T04:41:42.527Z,9
2017-04-14T04:42:42.537Z,9.02
2017-04-14T04:43:42.558Z,9
2017-04-14T04:44:42.570Z,9.02
2017-04-14T04:45:42.587Z,8.99
2017-04-14T04:46:42.595Z,8.94
2017-04-14T04:47:42.616Z,8.99
2017-04-14T04:48:42.625Z,9.02
2017-04-14T04:49:42.641Z,8.99
2017-04-14T04:50:42.657Z,9.02
2017-04-14T04:51:42.668Z,8.99
2017-04-14T04:52:42.369Z,8.97
2017-04-14T04:53:42.383Z,8.97
2017-04-14T04:54:42.713Z,8.94
2017-04-14T04:55:42.724Z,8.94
2017-04-14T04:56:42.750Z,8.97
2017-04-14T04:57:42.761Z,8.97
2017-04-14T04:58:42.772Z,8.97
2017-04-14T04:59:42.473Z,8.94
2017-04-14T05:00:42.494Z,8.94
2017-04-14T05:01:42.817Z,8.97
2017-04-14T05:02:42.831Z,8.97
2017-04-14T05:03:42.848Z,9.02
2017-04-14T05:04:42.862Z,9.03
2017-04-14T05:05:42.878Z,9.02
2017-04-14T05:06:42.891Z,8.99
2017-04-14T05:07:42.908Z,9.06
2017-04-14T05:08:42.925Z,9.03
2017-04-14T05:09:42.628Z,8.97
2017-04-14T05:10:42.944Z,8.97
2017-04-14T05:11:43.070Z,8.99
2017-04-14T05:12:42.662Z,8.99
2017-04-14T05:13:43.089Z,8.97
2017-04-14T05:14:43.120Z,8.97
2017-04-14T05:15:43.130Z,8.99
2017-04-14T05:16:43.135Z,9
2017-04-14T05:17:43.143Z,9.02
2017-04-14T05:18:43.146Z,8.99
2017-04-14T05:19:43.153Z,9.02
2017-04-14T05:20:43.162Z,9
2017-04-14T05:21:43.160Z,9.03
2017-04-14T05:22:43.169Z,9.02
2017-04-14T05:23:43.239Z,9
2017-04-14T05:24:43.248Z,8.99
2017-04-14T05:25:43.245Z,9.11
2017-04-14T05:26:43.254Z,8.99
2017-04-14T05:27:43.262Z,8.94
2017-04-14T05:28:43.275Z,9
2017-04-14T05:29:43.231Z,8.92
2017-04-14T05:30:43.370Z,9.06
2017-04-14T05:31:43.377Z,9.06
2017-04-14T05:32:43.367Z,9.03
2017-04-14T05:33:43.387Z,9
2017-04-14T05:34:43.076Z,8.99
2017-04-14T05:35:43.205Z,8.99
2017-04-14T05:36:43.517Z,8.97
2017-04-14T05:37:43.070Z,9.02
2017-04-14T05:38:43.536Z,9.04
2017-04-14T05:39:43.500Z,9.04
2017-04-14T05:40:43.552Z,8.97
2017-04-14T05:41:43.248Z,9.11
2017-04-14T05:42:43.570Z,9.03
2017-04-14T05:43:43.522Z,9.02
2017-04-14T05:44:43.577Z,8.97
2017-04-14T05:45:43.266Z,8.99
2017-04-14T05:46:42.850Z,9.06
2017-04-14T05:47:43.250Z,9.02
2017-04-14T05:48:43.683Z,9.14
2017-04-14T05:49:43.338Z,8.97
2017-04-14T05:50:43.660Z,9
2017-04-14T05:51:43.667Z,9.06
2017-04-14T05:52:43.666Z,8.99
2017-04-14T05:53:43.781Z,9.1
2017-04-14T05:54:43.683Z,9.06
2017-04-14T05:55:43.693Z,9.08
2017-04-14T05:56:43.705Z,9.06
2017-04-14T05:57:43.405Z,9.1
2017-04-14T05:58:43.519Z,9.11
2017-04-14T05:59:43.758Z,9.1
2017-04-14T06:00:43.375Z,9.06
2017-04-14T06:01:43.699Z,9.18
2017-04-14T06:02:43.709Z,9.22
2017-04-14T06:03:43.729Z,9.16
2017-04-14T06:04:43.744Z,9.18
2017-04-14T06:05:43.658Z,9.18
2017-04-14T06:06:43.669Z,9.13
2017-04-14T06:07:43.674Z,9.19
2017-04-14T06:08:43.359Z,9.14
2017-04-14T06:09:43.685Z,9.22
2017-04-14T06:10:43.827Z,9.16
2017-04-14T06:11:43.839Z,9.22
2017-04-14T06:12:43.857Z,9.23
2017-04-14T06:13:43.867Z,9.28
2017-04-14T06:14:43.888Z,9.26
2017-04-14T06:15:43.914Z,9.28
2017-04-14T06:16:43.913Z,9.26
2017-04-14T06:17:43.939Z,9.28
2017-04-14T06:18:43.944Z,9.31
2017-04-14T06:19:43.957Z,9.31
2017-04-14T06:20:44.007Z,9.34
2017-04-14T06:21:43.991Z,9.26
2017-04-14T06:22:43.996Z,9.37
2017-04-14T06:23:44.022Z,9.39
2017-04-14T06:24:44.038Z,9.34
2017-04-14T06:25:44.047Z,9.41
2017-04-14T06:26:43.741Z,9.43
2017-04-14T06:27:44.082Z,9.46
2017-04-14T06:28:44.093Z,9.43
2017-04-14T06:29:44.107Z,9.43
2017-04-14T06:30:43.805Z,9.47
2017-04-14T06:31:44.129Z,9.58
2017-04-14T06:32:44.157Z,9.59
2017-04-14T06:33:44.162Z,9.56
2017-04-14T06:34:44.300Z,9.61
2017-04-14T06:35:44.288Z,9.64
2017-04-14T06:36:44.324Z,9.61
2017-04-14T06:37:44.455Z,9.66
2017-04-14T06:38:44.463Z,9.72
2017-04-14T06:39:44.471Z,9.73
2017-04-14T06:40:44.436Z,9.65
2017-04-14T06:41:44.435Z,9.72
2017-04-14T06:42:44.445Z,9.68
2017-04-14T06:43:44.452Z,9.77
2017-04-14T06:44:44.460Z,9.74
2017-04-14T06:45:44.521Z,9.83
2017-04-14T06:46:44.530Z,9.82
2017-04-14T06:47:44.561Z,9.86
2017-04-14T06:48:44.571Z,9.79
2017-04-14T06:49:44.582Z,9.82
2017-04-14T06:50:44.593Z,9.82
2017-04-14T06:51:44.591Z,9.92
2017-04-14T06:52:44.601Z,9.89
2017-04-14T06:53:44.609Z,9.95
2017-04-14T06:54:44.619Z,9.87
2017-04-14T06:55:44.627Z,9.94
2017-04-14T06:56:44.638Z,9.97
2017-04-14T06:57:44.636Z,10.07
2017-04-14T06:58:44.643Z,10.09
2017-04-14T06:59:44.619Z,10.1
2017-04-14T07:00:44.623Z,10.16
2017-04-14T07:01:44.623Z,10.13
2017-04-14T07:02:44.632Z,10.15
2017-04-14T07:03:44.638Z,10.19
2017-04-14T07:04:44.650Z,10.16
2017-04-14T07:05:44.657Z,10.17
2017-04-14T07:06:44.702Z,10.23
2017-04-14T07:07:44.698Z,10.26
2017-04-14T07:08:44.672Z,10.3
2017-04-14T07:09:44.687Z,10.25
2017-04-14T07:10:44.391Z,10.25
2017-04-14T07:11:44.723Z,10.3
2017-04-14T07:12:44.732Z,10.31
2017-04-14T07:13:44.751Z,10.31
2017-04-14T07:14:44.450Z,10.33
2017-04-14T07:15:44.777Z,10.31
2017-04-14T07:16:44.569Z,10.31
2017-04-14T07:17:44.817Z,10.28
2017-04-14T07:18:44.833Z,10.25
2017-04-14T07:19:44.835Z,10.4
2017-04-14T07:20:44.852Z,10.34
2017-04-14T07:21:44.872Z,10.38
2017-04-14T07:22:44.886Z,10.46
2017-04-14T07:23:44.899Z,10.48
2017-04-14T07:24:44.911Z,10.49
2017-04-14T07:25:44.925Z,10.59
2017-04-14T07:26:44.941Z,10.56
2017-04-14T07:27:44.958Z,10.54
2017-04-14T07:28:44.661Z,10.6
2017-04-14T07:29:44.984Z,10.57
2017-04-14T07:30:45.003Z,10.67
2017-04-14T07:31:45.019Z,10.63
2017-04-14T07:32:44.752Z,10.61
2017-04-14T07:33:44.738Z,10.76
2017-04-14T07:34:45.066Z,10.76
2017-04-14T07:35:44.767Z,10.78
2017-04-14T07:36:45.094Z,10.87
2017-04-14T07:37:45.104Z,10.86
2017-04-14T07:38:45.122Z,10.79
2017-04-14T07:39:45.141Z,10.87
2017-04-14T07:40:45.163Z,10.92
2017-04-14T07:41:45.166Z,10.87
2017-04-14T07:42:45.185Z,10.96
2017-04-14T07:43:45.192Z,11.05
2017-04-14T07:44:45.213Z,10.97
2017-04-14T07:45:45.229Z,11.05
2017-04-14T07:46:45.244Z,11.05
2017-04-14T07:47:45.258Z,11.14
2017-04-14T07:48:44.964Z,11.12
2017-04-14T07:49:45.288Z,11.23
2017-04-14T07:50:45.305Z,11.29
2017-04-14T07:51:45.327Z,11.26
2017-04-14T07:52:45.339Z,11.43
2017-04-14T07:53:45.349Z,11.45
2017-04-14T07:54:45.366Z,11.51
2017-04-14T07:55:45.387Z,11.52
2017-04-14T07:56:45.412Z,11.68
2017-04-14T07:57:45.418Z,11.77
2017-04-14T07:58:45.429Z,11.7
2017-04-14T07:59:45.441Z,11.75
2017-04-14T08:00:45.460Z,11.8
2017-04-14T08:01:45.469Z,11.8
2017-04-14T08:02:45.496Z,11.9
2017-04-14T08:03:45.508Z,11.88
2017-04-14T08:04:45.520Z,11.94
2017-04-14T08:05:45.540Z,12.04
2017-04-14T08:06:45.549Z,11.95
2017-04-14T08:07:45.581Z,12.12
2017-04-14T08:08:45.586Z,12.06
2017-04-14T08:09:45.600Z,12.09
2017-04-14T08:10:45.611Z,12.2
2017-04-14T08:11:45.630Z,12.12
2017-04-14T08:12:45.653Z,12.09
2017-04-14T08:13:45.665Z,12.15
2017-04-14T08:14:45.674Z,12.09
2017-04-14T08:15:45.384Z,12.13
2017-04-14T08:16:45.709Z,12.17
2017-04-14T08:17:45.728Z,12.15
2017-04-14T08:18:45.739Z,12.13
2017-04-14T08:19:45.767Z,12.12
2017-04-14T08:20:45.775Z,12.17
2017-04-14T08:21:45.799Z,12.17
2017-04-14T08:22:45.810Z,12.24
2017-04-14T08:23:45.509Z,12.25
2017-04-14T08:24:45.847Z,12.25
2017-04-14T08:25:45.854Z,12.24
2017-04-14T08:26:45.870Z,12.25
2017-04-14T08:27:45.887Z,12.28
2017-04-14T08:28:45.901Z,12.24
2017-04-14T08:29:45.915Z,12.25
2017-04-14T08:30:45.926Z,12.42
2017-04-14T08:31:45.951Z,12.35
2017-04-14T08:32:45.962Z,12.32
2017-04-14T08:33:45.666Z,12.47
2017-04-14T08:34:46.001Z,12.54
2017-04-14T08:35:46.014Z,12.45
2017-04-14T08:36:46.027Z,12.65
2017-04-14T08:37:46.052Z,12.7
2017-04-14T08:38:46.066Z,12.73
2017-04-14T08:39:45.761Z,12.82
2017-04-14T08:40:46.091Z,12.9
2017-04-14T08:41:46.119Z,12.93
2017-04-14T08:42:46.127Z,13
2017-04-14T08:43:46.140Z,12.93
2017-04-14T08:44:46.207Z,13.09
2017-04-14T08:45:46.178Z,13.08
2017-04-14T08:46:46.288Z,13.05
2017-04-14T08:47:46.207Z,13.12
2017-04-14T08:48:46.284Z,13.15
2017-04-14T08:49:46.292Z,13.22
2017-04-14T08:50:46.299Z,13.2
2017-04-14T08:51:46.299Z,13.19
2017-04-14T08:52:46.309Z,13.39
2017-04-14T08:53:46.308Z,13.38
2017-04-14T08:54:46.327Z,13.47
2017-04-14T08:55:46.332Z,13.49
2017-04-14T08:56:46.043Z,13.53
2017-04-14T08:57:46.461Z,13.59
2017-04-14T08:58:46.491Z,13.74
2017-04-14T08:59:46.498Z,13.67
2017-04-14T09:00:46.508Z,13.68
2017-04-14T09:01:46.565Z,13.75
2017-04-14T09:02:46.580Z,13.79
2017-04-14T09:03:46.565Z,13.7
2017-04-14T09:04:46.721Z,13.72
2017-04-14T09:05:46.728Z,13.78
2017-04-14T09:06:46.735Z,13.89
2017-04-14T09:07:46.739Z,13.87
2017-04-14T09:08:46.751Z,13.93
2017-04-14T09:09:46.747Z,14.07
2017-04-14T09:10:46.758Z,14.29
2017-04-14T09:11:46.774Z,14.2
2017-04-14T09:12:46.740Z,14.3
2017-04-14T09:13:46.745Z,14.45
2017-04-14T09:14:46.742Z,14.48
2017-04-14T09:15:46.782Z,14.54
2017-04-14T09:16:46.897Z,14.54
2017-04-14T09:17:46.904Z,14.51
2017-04-14T09:18:46.916Z,14.53
2017-04-14T09:19:46.923Z,14.53
2017-04-14T09:20:46.878Z,14.58
2017-04-14T09:21:46.576Z,14.51
2017-04-14T09:22:46.895Z,14.51
2017-04-14T09:23:46.897Z,14.69
2017-04-14T09:24:46.903Z,14.7
2017-04-14T09:25:46.910Z,14.73
2017-04-14T09:26:47.007Z,14.77
2017-04-14T09:27:46.961Z,14.81
2017-04-14T09:28:46.653Z,14.79
2017-04-14T09:29:46.971Z,14.86
2017-04-14T09:30:46.983Z,14.88
2017-04-14T09:31:46.664Z,14.91
2017-04-14T09:32:46.965Z,15
2017-04-14T09:33:46.988Z,14.97
2017-04-14T09:34:46.995Z,14.96
2017-04-14T09:35:47.015Z,14.97
2017-04-14T09:36:47.039Z,15.02
2017-04-14T09:37:47.057Z,14.99
2017-04-14T09:38:46.757Z,15.03
2017-04-14T09:39:47.089Z,14.99
2017-04-14T09:40:47.101Z,15.02
2017-04-14T09:41:47.125Z,15.03
2017-04-14T09:42:47.138Z,15.03
2017-04-14T09:43:47.161Z,15.09
2017-04-14T09:44:47.175Z,15.09
2017-04-14T09:45:47.190Z,15.11
2017-04-14T09:46:47.207Z,15.19
2017-04-14T09:47:47.233Z,15.28
2017-04-14T09:48:47.257Z,15.39
2017-04-14T09:49:47.261Z,15.4
2017-04-14T09:50:47.278Z,15.46
2017-04-14T09:51:47.293Z,15.59
2017-04-14T09:52:47.319Z,15.52
2017-04-14T09:53:47.341Z,15.68
2017-04-14T09:54:47.355Z,15.59
2017-04-14T09:55:47.369Z,15.67
2017-04-14T09:56:47.386Z,15.67
2017-04-14T09:57:47.400Z,15.62
2017-04-14T09:58:47.109Z,15.76
2017-04-14T09:59:47.439Z,15.77
2017-04-14T10:00:47.461Z,15.83
2017-04-14T10:01:47.476Z,15.84
2017-04-14T10:02:47.539Z,15.9
2017-04-14T10:03:47.520Z,16
2017-04-14T10:04:47.535Z,15.94
2017-04-14T10:05:47.552Z,16.12
2017-04-14T10:06:47.568Z,16.17
2017-04-14T10:07:47.586Z,16.31
2017-04-14T10:08:47.609Z,16.29
2017-04-14T10:09:47.621Z,16.33
2017-04-14T10:10:47.643Z,16.38
2017-04-14T10:11:47.662Z,16.53
2017-04-14T10:12:47.681Z,16.57
2017-04-14T10:13:47.697Z,16.58
2017-04-14T10:14:47.712Z,16.71
2017-04-14T10:15:47.419Z,16.78
2017-04-14T10:16:47.752Z,16.87
2017-04-14T10:17:47.775Z,16.78
2017-04-14T10:18:47.799Z,16.97
2017-04-14T10:19:47.814Z,16.99
2017-04-14T10:20:47.827Z,17.06
2017-04-14T10:21:47.531Z,17.12
2017-04-14T10:22:47.550Z,17.19
2017-04-14T10:23:47.882Z,17.16
2017-04-14T10:24:47.905Z,17.22
2017-04-14T10:25:47.920Z,17.24
2017-04-14T10:26:47.938Z,17.33
2017-04-14T10:27:47.962Z,17.36
2017-04-14T10:28:47.978Z,17.38
2017-04-14T10:29:48.001Z,17.38
2017-04-14T10:30:48.019Z,17.51
2017-04-14T10:31:47.762Z,17.49
2017-04-14T10:32:48.058Z,17.54
2017-04-14T10:33:48.081Z,17.52
2017-04-14T10:34:48.092Z,17.63
2017-04-14T10:35:47.798Z,17.76
2017-04-14T10:36:47.820Z,17.7
2017-04-14T10:37:48.153Z,17.79
2017-04-14T10:38:48.171Z,17.82
2017-04-14T10:39:48.183Z,17.89
2017-04-14T10:40:48.299Z,17.98
2017-04-14T10:41:48.225Z,18.03
2017-04-14T10:42:48.246Z,18
2017-04-14T10:43:48.276Z,18.13
2017-04-14T10:44:48.297Z,18.1
2017-04-14T10:45:48.309Z,18.2
2017-04-14T10:46:48.324Z,18.29
2017-04-14T10:47:48.343Z,18.35
2017-04-14T10:48:48.369Z,18.4
2017-04-14T10:49:48.382Z,18.52
2017-04-14T10:50:48.399Z,18.52
2017-04-14T10:51:48.417Z,18.55
2017-04-14T10:52:48.442Z,18.59
2017-04-14T10:53:48.470Z,18.66
2017-04-14T10:54:48.481Z,18.62
2017-04-14T10:55:48.503Z,18.7
2017-04-14T10:56:48.523Z,18.75
2017-04-14T10:57:48.589Z,18.8
2017-04-14T10:58:48.562Z,18.77
2017-04-14T10:59:48.587Z,18.88
2017-04-14T11:00:48.603Z,18.89
2017-04-14T11:01:48.624Z,18.96
2017-04-14T11:02:48.643Z,18.92
2017-04-14T11:03:48.665Z,18.96
2017-04-14T11:04:48.685Z,19.04
2017-04-14T11:05:48.711Z,19.15
2017-04-14T11:06:48.724Z,19.08
2017-04-14T11:07:48.750Z,19.29
2017-04-14T11:08:48.452Z,19.31
2017-04-14T11:09:48.786Z,19.34
2017-04-14T11:10:48.489Z,19.48
2017-04-14T11:11:48.828Z,19.59
2017-04-14T11:12:48.847Z,19.69
2017-04-14T11:13:48.873Z,19.66
2017-04-14T11:14:48.892Z,19.74
2017-04-14T11:15:48.907Z,19.76
2017-04-14T11:16:48.929Z,19.82
2017-04-14T11:17:48.949Z,19.88
2017-04-14T11:18:48.986Z,19.88
2017-04-14T11:19:48.991Z,19.95
2017-04-14T11:20:49.015Z,19.91
2017-04-14T11:21:49.033Z,19.99
2017-04-14T11:22:49.050Z,19.88
2017-04-14T11:23:49.078Z,19.89
2017-04-14T11:24:49.100Z,19.81
2017-04-14T11:25:49.120Z,19.85
2017-04-14T11:26:49.141Z,19.76
2017-04-14T11:27:49.171Z,19.74
2017-04-14T11:28:49.188Z,19.71
2017-04-14T11:29:49.201Z,19.76
2017-04-14T11:30:49.218Z,19.74
2017-04-14T11:31:49.244Z,19.7
2017-04-14T11:32:49.276Z,19.74
2017-04-14T11:33:49.286Z,19.63
2017-04-14T11:34:49.303Z,19.76
2017-04-14T11:35:49.374Z,19.69
2017-04-14T11:36:49.348Z,19.79
2017-04-14T11:37:49.367Z,19.77
2017-04-14T11:38:49.515Z,19.69
2017-04-14T11:39:49.526Z,19.76
2017-04-14T11:40:49.547Z,19.81
2017-04-14T11:41:49.544Z,19.82
2017-04-14T11:42:49.579Z,19.88
2017-04-14T11:43:49.586Z,19.95
2017-04-14T11:44:49.596Z,19.94
2017-04-14T11:45:49.603Z,19.92
2017-04-14T11:46:49.614Z,20
2017-04-14T11:47:49.672Z,19.99
2017-04-14T11:48:49.681Z,20.07
2017-04-14T11:49:49.314Z,20.06
2017-04-14T11:50:49.700Z,20.04
2017-04-14T11:51:49.708Z,20.11
2017-04-14T11:52:49.707Z,20.22
2017-04-14T11:53:49.716Z,20.16
2017-04-14T11:54:49.539Z,20.14
2017-04-14T11:55:49.849Z,20.24
2017-04-14T11:56:49.885Z,20.11
2017-04-14T11:57:49.880Z,20.18
2017-04-14T11:58:49.890Z,20.19
2017-04-14T11:59:49.845Z,20.19
2017-04-14T12:00:49.867Z,20.14
2017-04-14T12:01:49.893Z,20.19
2017-04-14T12:02:49.949Z,20.11
2017-04-14T12:03:49.932Z,20.18
2017-04-14T12:04:49.950Z,20.13
2017-04-14T12:05:49.971Z,20.11
2017-04-14T12:06:50.001Z,20.16
2017-04-14T12:07:50.020Z,20.14
2017-04-14T12:08:50.038Z,20.16
2017-04-14T12:09:50.063Z,20.25
2017-04-14T12:10:50.081Z,20.28
2017-04-14T12:11:50.104Z,20.24
2017-04-14T12:12:50.123Z,20.26
2017-04-14T12:13:50.149Z,20.37
2017-04-14T12:14:50.175Z,20.26
2017-04-14T12:15:49.932Z,20.26
2017-04-14T12:16:50.220Z,20.48
2017-04-14T12:17:50.245Z,20.41
2017-04-14T12:18:50.260Z,20.43
2017-04-14T12:19:50.283Z,20.47
2017-04-14T12:20:50.300Z,20.43
2017-04-14T12:21:50.320Z,20.55
2017-04-14T12:22:50.033Z,20.52
2017-04-14T12:23:50.372Z,20.6
2017-04-14T12:24:50.607Z,20.56
2017-04-14T12:25:50.411Z,20.6
2017-04-14T12:26:50.437Z,20.7
2017-04-14T12:27:50.458Z,20.6
2017-04-14T12:28:50.479Z,20.74
2017-04-14T12:29:50.499Z,20.74
2017-04-14T12:30:50.209Z,20.74
2017-04-14T12:31:50.542Z,20.78
2017-04-14T12:32:50.569Z,20.72
2017-04-14T12:33:50.589Z,20.75
2017-04-14T12:34:50.611Z,20.8
2017-04-14T12:35:50.635Z,20.77
2017-04-14T12:36:50.705Z,20.8
2017-04-14T12:37:50.760Z,20.87
2017-04-14T12:38:50.783Z,20.88
2017-04-14T12:39:50.792Z,20.97
2017-04-14T12:40:50.811Z,20.92
2017-04-14T12:41:50.820Z,20.88
2017-04-14T12:42:50.829Z,20.9
2017-04-14T12:43:50.837Z,20.93
2017-04-14T12:44:50.847Z,20.9
2017-04-14T12:45:50.859Z,20.95
2017-04-14T12:46:50.614Z,20.85
2017-04-14T12:47:50.899Z,20.82
2017-04-14T12:48:50.922Z,20.85
2017-04-14T12:49:50.945Z,20.8
2017-04-14T12:50:50.977Z,20.82
2017-04-14T12:51:50.992Z,20.85
2017-04-14T12:52:51.011Z,20.78
2017-04-14T12:53:51.034Z,20.74
2017-04-14T12:54:51.056Z,20.66
2017-04-14T12:55:51.080Z,20.63
2017-04-14T12:56:51.107Z,20.6
2017-04-14T12:57:51.131Z,20.55
2017-04-14T12:58:51.149Z,20.58
2017-04-14T12:59:51.173Z,20.4
2017-04-14T13:00:51.198Z,20.48
2017-04-14T13:01:51.216Z,20.47
2017-04-14T13:02:51.240Z,20.56
2017-04-14T13:03:51.313Z,20.51
2017-04-14T13:04:51.291Z,20.56
2017-04-14T13:05:51.304Z,20.55